createdAt,value
2018-01-25T00:00:16.032Z,7.30
2018-01-25T00:02:44.835Z,7.30
2018-01-25T00:05:13.629Z,7.20
2018-01-25T00:07:41.678Z,7.10
2018-01-25T00:10:09.728Z,7.20
2018-01-25T00:12:37.768Z,7.10
2018-01-25T00:15:05.838Z,7.10
2018-01-25T00:17:34.053Z,7.00
2018-01-25T00:20:02.055Z,6.90
2018-01-25T00:22:31.819Z,6.80
2018-01-25T00:24:59.868Z,6.70
2018-01-25T00:27:27.896Z,6.70
2018-01-25T00:29:55.939Z,6.60
2018-01-25T00:32:23.992Z,6.60
2018-01-25T00:34:52.023Z,6.50
2018-01-25T00:37:20.093Z,6.60
2018-01-25T00:39:48.141Z,6.50
2018-01-25T00:42:16.164Z,6.50
2018-01-25T00:44:44.207Z,6.50
2018-01-25T00:47:12.264Z,6.30
2018-01-25T00:49:40.300Z,6.00
2018-01-25T00:52:09.112Z,6.00
2018-01-25T00:54:37.160Z,5.90
2018-01-25T00:57:05.200Z,6.00
2018-01-25T00:59:33.273Z,6.00
2018-01-25T01:02:01.340Z,6.00
2018-01-25T01:04:29.379Z,5.90
2018-01-25T01:06:57.432Z,5.90
2018-01-25T01:09:25.484Z,5.80
2018-01-25T01:11:54.276Z,5.70
2018-01-25T01:14:23.147Z,5.70
2018-01-25T01:16:51.159Z,5.70
2018-01-25T01:19:19.953Z,5.50
2018-01-25T01:21:47.996Z,5.40
2018-01-25T01:24:16.032Z,5.40
2018-01-25T01:26:44.852Z,5.20
2018-01-25T01:29:12.889Z,5.20
2018-01-25T01:31:40.940Z,5.30
2018-01-25T01:34:08.969Z,5.30
2018-01-25T01:36:37.020Z,5.30
2018-01-25T01:39:05.076Z,5.20
2018-01-25T01:41:33.111Z,5.20
2018-01-25T01:44:01.404Z,5.20
2018-01-25T01:46:30.176Z,5.20
2018-01-25T01:48:58.167Z,5.10
2018-01-25T01:51:26.164Z,5.10
2018-01-25T01:53:54.935Z,5.00
2018-01-25T01:56:22.927Z,4.90
2018-01-25T01:58:50.924Z,5.00
2018-01-25T02:01:18.924Z,5.00
2018-01-25T02:03:47.684Z,5.00
2018-01-25T02:06:15.685Z,5.00
2018-01-25T02:08:43.688Z,5.00
2018-01-25T02:11:12.440Z,4.90
2018-01-25T02:13:40.439Z,4.90
2018-01-25T02:16:08.440Z,4.90
2018-01-25T02:18:36.436Z,4.90
2018-01-25T02:21:05.204Z,4.90
2018-01-25T02:23:33.226Z,4.80
2018-01-25T02:26:01.243Z,4.90
2018-01-25T02:28:29.582Z,4.90
2018-01-25T02:30:57.551Z,4.80
2018-01-25T02:33:25.535Z,4.80
2018-01-25T02:35:53.536Z,4.90
2018-01-25T02:38:22.295Z,4.80
2018-01-25T02:40:50.283Z,4.80
2018-01-25T02:43:18.285Z,4.80
2018-01-25T02:45:46.283Z,4.80
2018-01-25T02:48:15.045Z,4.80
2018-01-25T02:50:43.044Z,4.70
2018-01-25T02:53:11.044Z,4.80
2018-01-25T02:55:39.024Z,4.80
2018-01-25T02:58:07.020Z,4.70
2018-01-25T03:00:35.796Z,4.80
2018-01-25T03:03:03.821Z,4.70
2018-01-25T03:05:31.831Z,4.80
2018-01-25T03:07:59.840Z,4.70
2018-01-25T03:10:27.816Z,4.70
2018-01-25T03:12:55.826Z,4.60
2018-01-25T03:15:24.592Z,4.70
2018-01-25T03:17:52.579Z,4.70
2018-01-25T03:20:20.588Z,4.60
2018-01-25T03:22:48.583Z,4.70
2018-01-25T03:25:17.338Z,4.70
2018-01-25T03:27:45.332Z,4.70
2018-01-25T03:30:13.332Z,4.70
2018-01-25T03:32:41.328Z,4.70
2018-01-25T03:35:10.088Z,4.70
2018-01-25T03:37:38.088Z,4.70
2018-01-25T03:40:06.081Z,4.70
2018-01-25T03:42:34.076Z,4.60
2018-01-25T03:45:02.855Z,4.60
2018-01-25T03:47:30.839Z,4.50
2018-01-25T03:49:58.842Z,4.40
2018-01-25T03:52:27.599Z,4.50
2018-01-25T03:54:55.595Z,4.50
2018-01-25T03:57:23.596Z,4.50
2018-01-25T03:59:51.595Z,4.40
2018-01-25T04:02:20.347Z,4.40
2018-01-25T04:04:48.351Z,4.40
2018-01-25T04:07:16.359Z,4.40
2018-01-25T04:09:45.099Z,4.50
2018-01-25T04:12:13.092Z,4.40
2018-01-25T04:14:41.091Z,4.40
2018-01-25T04:17:09.089Z,4.50
2018-01-25T04:19:37.091Z,4.50
2018-01-25T04:22:05.864Z,4.70
2018-01-25T04:24:34.618Z,4.70
2018-01-25T04:27:02.626Z,4.90
2018-01-25T04:29:30.660Z,5.00
2018-01-25T04:31:59.406Z,5.10
2018-01-25T04:34:27.408Z,5.10
2018-01-25T04:36:55.679Z,5.20
2018-01-25T04:39:23.662Z,5.30
2018-01-25T04:41:51.664Z,5.40
2018-01-25T04:44:19.659Z,5.40
2018-01-25T04:46:47.655Z,5.40
2018-01-25T04:49:16.415Z,5.50
2018-01-25T04:51:44.432Z,5.50
2018-01-25T04:54:13.179Z,5.50
2018-01-25T04:56:41.183Z,5.50
2018-01-25T04:59:09.187Z,5.50
2018-01-25T05:01:37.172Z,5.50
2018-01-25T05:04:05.171Z,5.50
2018-01-25T05:06:33.941Z,5.50
2018-01-25T05:09:01.928Z,5.50
2018-01-25T05:11:29.931Z,5.60
2018-01-25T05:13:58.704Z,5.70
2018-01-25T05:16:26.692Z,5.70
2018-01-25T05:18:54.688Z,5.80
2018-01-25T05:21:22.696Z,5.80
2018-01-25T05:23:51.440Z,5.90
2018-01-25T05:26:19.436Z,5.90
2018-01-25T05:28:47.438Z,5.90
2018-01-25T05:31:15.420Z,5.90
2018-01-25T05:33:43.424Z,5.90
2018-01-25T05:36:12.195Z,6.10
2018-01-25T05:38:40.171Z,6.10
2018-01-25T05:41:08.171Z,6.10
2018-01-25T05:43:36.184Z,6.20
2018-01-25T05:46:04.179Z,6.30
2018-01-25T05:48:32.193Z,6.30
2018-01-25T05:51:00.200Z,6.40
2018-01-25T05:53:29.107Z,6.50
2018-01-25T05:55:57.112Z,6.50
2018-01-25T05:58:25.120Z,6.60
2018-01-25T06:00:53.106Z,6.60
2018-01-25T06:03:21.108Z,6.60
2018-01-25T06:05:49.112Z,6.60
2018-01-25T06:08:17.099Z,6.70
2018-01-25T06:10:45.108Z,6.80
2018-01-25T06:13:13.116Z,6.80
2018-01-25T06:15:41.099Z,6.90
2018-01-25T06:18:09.108Z,6.90
2018-01-25T06:20:37.091Z,6.90
2018-01-25T06:23:05.088Z,7.00
2018-01-25T06:25:33.096Z,7.00
2018-01-25T06:28:01.878Z,7.00
2018-01-25T06:30:29.879Z,6.90
2018-01-25T06:32:58.635Z,7.00
2018-01-25T06:35:26.643Z,7.00
2018-01-25T06:37:55.416Z,7.10
2018-01-25T06:40:23.405Z,7.00
2018-01-25T06:42:51.629Z,7.10
2018-01-25T06:45:19.576Z,7.10
2018-01-25T06:47:47.581Z,7.10
2018-01-25T06:50:15.579Z,7.10
2018-01-25T06:52:44.335Z,7.20
2018-01-25T06:55:12.341Z,7.10
2018-01-25T06:57:41.839Z,7.20
2018-01-25T07:00:09.824Z,7.20
2018-01-25T07:02:37.820Z,7.30
2018-01-25T07:05:05.840Z,7.30
2018-01-25T07:07:34.584Z,7.20
2018-01-25T07:10:02.599Z,7.20
2018-01-25T07:12:30.608Z,7.20
2018-01-25T07:14:58.591Z,7.30
2018-01-25T07:17:26.584Z,7.30
2018-01-25T07:19:54.575Z,7.30
2018-01-25T07:22:22.559Z,7.30
2018-01-25T07:24:50.575Z,7.30
2018-01-25T07:27:18.571Z,7.30
2018-01-25T07:29:47.332Z,7.40
2018-01-25T07:32:15.337Z,7.40
2018-01-25T07:34:43.331Z,7.40
2018-01-25T07:37:11.323Z,7.50
2018-01-25T07:39:40.105Z,7.60
2018-01-25T07:42:08.108Z,7.50
2018-01-25T07:44:36.936Z,7.60
2018-01-25T07:47:04.967Z,7.60
2018-01-25T07:49:33.008Z,7.60
2018-01-25T07:52:01.035Z,7.60
2018-01-25T07:54:29.037Z,7.70
2018-01-25T07:56:57.036Z,7.70
2018-01-25T07:59:25.787Z,7.80
2018-01-25T08:01:53.783Z,7.70
2018-01-25T08:04:21.779Z,7.90
2018-01-25T08:06:49.767Z,7.90
2018-01-25T08:09:17.759Z,7.90
2018-01-25T08:11:46.528Z,8.00
2018-01-25T08:14:14.515Z,8.00
2018-01-25T08:16:48.259Z,8.10
2018-01-25T08:19:17.032Z,8.10
2018-01-25T08:21:45.020Z,8.00
2018-01-25T08:24:13.024Z,8.10
2018-01-25T08:26:41.023Z,8.20
2018-01-25T08:29:10.352Z,8.20
2018-01-25T08:31:38.328Z,8.20
2018-01-25T08:34:06.335Z,8.30
2018-01-25T08:36:34.324Z,8.40
2018-01-25T08:39:02.328Z,8.40
2018-01-25T08:41:33.156Z,8.40
2018-01-25T08:43:58.482Z,8.50
2018-01-25T08:46:26.483Z,8.50
2018-01-25T08:48:54.476Z,8.60
2018-01-25T08:51:23.241Z,8.70
2018-01-25T08:53:51.252Z,8.60
2018-01-25T08:56:19.260Z,8.70
2018-01-25T08:58:47.251Z,8.70
2018-01-25T09:01:15.252Z,8.80
2018-01-25T09:03:43.243Z,8.80
2018-01-25T09:06:11.240Z,8.70
2018-01-25T09:08:39.277Z,8.80
2018-01-25T09:11:07.300Z,8.90
2018-01-25T09:13:35.306Z,8.90
2018-01-25T09:16:03.296Z,9.00
2018-01-25T09:18:31.312Z,9.00
2018-01-25T09:20:59.291Z,9.00
2018-01-25T09:23:27.296Z,9.10
2018-01-25T09:25:55.312Z,9.10
2018-01-25T09:28:23.296Z,9.20
2018-01-25T09:30:51.303Z,9.30
2018-01-25T09:33:20.072Z,9.40
2018-01-25T09:35:48.058Z,9.40
2018-01-25T09:38:16.061Z,9.50
2018-01-25T09:40:44.072Z,9.50
2018-01-25T09:43:12.071Z,9.60
2018-01-25T09:45:40.072Z,9.60
2018-01-25T09:48:08.092Z,9.60
2018-01-25T09:50:36.854Z,9.70
2018-01-25T09:53:04.847Z,9.70
2018-01-25T09:55:32.872Z,9.70
2018-01-25T09:58:01.632Z,9.80
2018-01-25T10:00:29.640Z,9.80
2018-01-25T10:02:57.635Z,9.90
2018-01-25T10:05:26.400Z,9.90
2018-01-25T10:07:54.395Z,9.90
2018-01-25T10:10:22.400Z,10.00
2018-01-25T10:12:51.156Z,10.00
2018-01-25T10:15:19.169Z,10.00
2018-01-25T10:17:47.176Z,10.10
2018-01-25T10:20:15.163Z,10.10
2018-01-25T10:22:43.175Z,10.20
2018-01-25T10:25:11.187Z,10.10
2018-01-25T10:27:39.167Z,10.20
2018-01-25T10:30:07.207Z,10.20
2018-01-25T10:32:35.227Z,10.20
2018-01-25T10:35:03.248Z,10.30
2018-01-25T10:37:32.767Z,10.30
2018-01-25T10:40:01.572Z,10.40
2018-01-25T10:42:30.335Z,10.50
2018-01-25T10:44:58.756Z,10.40
2018-01-25T10:47:26.924Z,10.50
2018-01-25T10:49:54.916Z,10.50
2018-01-25T10:52:23.747Z,10.60
2018-01-25T10:54:51.700Z,10.60
2018-01-25T10:57:19.692Z,10.70
2018-01-25T10:59:48.455Z,10.70
2018-01-25T11:02:16.468Z,10.70
2018-01-25T11:04:44.468Z,10.70
2018-01-25T11:07:13.246Z,10.60
2018-01-25T11:09:41.252Z,10.60
2018-01-25T11:12:10.012Z,10.80
2018-01-25T11:14:38.032Z,10.70
2018-01-25T11:17:06.795Z,10.90
2018-01-25T11:19:34.788Z,10.90
2018-01-25T11:22:02.804Z,11.00
2018-01-25T11:24:30.830Z,11.00
2018-01-25T11:26:58.815Z,11.10
2018-01-25T11:29:26.821Z,11.10
2018-01-25T11:31:54.836Z,11.10
2018-01-25T11:34:22.824Z,11.10
2018-01-25T11:36:50.832Z,11.00
2018-01-25T11:39:18.848Z,11.10
2018-01-25T11:41:46.841Z,11.10
2018-01-25T11:44:15.611Z,11.20
2018-01-25T11:46:43.615Z,11.10
2018-01-25T11:49:11.616Z,11.30
2018-01-25T11:51:40.383Z,11.50
2018-01-25T11:54:08.397Z,11.40
2018-01-25T11:56:36.376Z,11.50
2018-01-25T11:59:05.152Z,11.50
2018-01-25T12:01:33.172Z,11.40
2018-01-25T12:04:01.932Z,11.50
2018-01-25T12:06:29.940Z,11.40
2018-01-25T12:08:58.719Z,11.60
2018-01-25T12:11:26.720Z,11.50
2018-01-25T12:13:54.723Z,11.60
2018-01-25T12:16:23.497Z,11.70
2018-01-25T12:18:51.484Z,11.60
2018-01-25T12:21:20.259Z,11.70
2018-01-25T12:23:48.266Z,11.60
2018-01-25T12:26:16.256Z,11.70
2018-01-25T12:28:45.040Z,11.70
2018-01-25T12:31:13.052Z,11.70
2018-01-25T12:33:41.815Z,11.70
2018-01-25T12:36:09.824Z,11.70
2018-01-25T12:38:38.599Z,11.70
2018-01-25T12:41:06.596Z,11.70
2018-01-25T12:43:34.600Z,11.80
2018-01-25T12:46:03.383Z,11.80
2018-01-25T12:48:31.392Z,11.80
2018-01-25T12:50:59.412Z,11.90
2018-01-25T12:53:27.432Z,12.00
2018-01-25T12:55:55.419Z,12.00
2018-01-25T12:58:24.187Z,12.00
2018-01-25T13:00:52.200Z,11.90
2018-01-25T13:03:21.770Z,11.90
2018-01-25T13:05:50.520Z,11.80
2018-01-25T13:08:18.521Z,11.80
2018-01-25T13:10:47.275Z,11.80
2018-01-25T13:13:15.281Z,11.70
2018-01-25T13:15:43.279Z,11.90
2018-01-25T13:18:11.272Z,11.90
2018-01-25T13:20:40.036Z,11.90
2018-01-25T13:23:08.072Z,11.90
2018-01-25T13:25:36.228Z,12.00
2018-01-25T13:28:05.008Z,12.00
2018-01-25T13:30:33.016Z,12.00
2018-01-25T13:33:07.397Z,12.00
2018-01-25T13:35:35.405Z,12.00
2018-01-25T13:38:03.387Z,12.00
2018-01-25T13:40:31.404Z,12.00
2018-01-25T13:43:00.175Z,12.00
2018-01-25T13:45:28.176Z,11.90
2018-01-25T13:47:56.959Z,12.00
2018-01-25T13:50:25.032Z,11.90
2018-01-25T13:52:53.075Z,12.00
2018-01-25T13:55:21.070Z,12.00
2018-01-25T13:57:51.989Z,11.90
2018-01-25T14:00:20.862Z,11.90
2018-01-25T14:02:48.867Z,11.80
2018-01-25T14:05:17.623Z,11.90
2018-01-25T14:07:45.644Z,11.80
2018-01-25T14:10:13.641Z,11.90
2018-01-25T14:12:42.415Z,11.90
2018-01-25T14:15:10.450Z,11.80
2018-01-25T14:17:38.484Z,11.90
2018-01-25T14:20:06.488Z,11.90
2018-01-25T14:22:35.265Z,11.90
2018-01-25T14:25:03.272Z,11.80
2018-01-25T14:27:32.043Z,11.90
2018-01-25T14:30:00.050Z,11.80
2018-01-25T14:32:28.817Z,11.90
2018-01-25T14:34:56.809Z,11.80
2018-01-25T14:37:25.579Z,11.80
2018-01-25T14:39:53.591Z,11.70
2018-01-25T14:42:21.595Z,11.80
2018-01-25T14:44:50.381Z,11.70
2018-01-25T14:47:19.904Z,11.50
2018-01-25T14:49:47.916Z,11.50
2018-01-25T14:52:16.684Z,11.60
2018-01-25T14:54:44.701Z,11.50
2018-01-25T14:57:12.691Z,11.50
2018-01-25T14:59:40.722Z,11.60
2018-01-25T15:02:08.753Z,11.40
2018-01-25T15:04:37.497Z,11.40
2018-01-25T15:07:05.507Z,11.30
2018-01-25T15:09:33.521Z,11.40
2018-01-25T15:12:01.516Z,11.30
2018-01-25T15:14:29.520Z,11.30
2018-01-25T15:16:57.526Z,11.30
2018-01-25T15:19:25.535Z,11.20
2018-01-25T15:21:54.311Z,11.10
2018-01-25T15:24:22.310Z,11.10
2018-01-25T15:26:51.071Z,11.00
2018-01-25T15:29:19.076Z,11.00
2018-01-25T15:31:47.079Z,11.00
2018-01-25T15:34:15.832Z,10.90
2018-01-25T15:36:43.839Z,10.90
2018-01-25T15:39:11.860Z,10.90
2018-01-25T15:41:39.852Z,10.90
2018-01-25T15:44:07.864Z,10.90
2018-01-25T15:46:35.863Z,10.80
2018-01-25T15:49:03.862Z,10.80
2018-01-25T15:51:33.393Z,10.60
2018-01-25T15:54:02.184Z,10.60
2018-01-25T15:56:30.200Z,10.60
2018-01-25T15:58:58.213Z,10.60
2018-01-25T16:01:26.220Z,10.50
2018-01-25T16:03:54.207Z,10.50
2018-01-25T16:06:22.203Z,10.50
2018-01-25T16:08:50.975Z,10.40
2018-01-25T16:11:18.963Z,10.30
2018-01-25T16:13:46.976Z,10.30
2018-01-25T16:16:15.743Z,10.20
2018-01-25T16:18:43.740Z,10.20
2018-01-25T16:21:11.752Z,10.20
2018-01-25T16:23:39.768Z,10.10
2018-01-25T16:26:07.760Z,10.10
2018-01-25T16:28:35.782Z,10.00
2018-01-25T16:31:03.800Z,9.90
2018-01-25T16:33:31.794Z,9.90
2018-01-25T16:35:59.797Z,9.80
2018-01-25T16:38:27.785Z,9.80
2018-01-25T16:40:55.771Z,9.70
2018-01-25T16:43:23.781Z,9.70
2018-01-25T16:45:52.548Z,9.40
2018-01-25T16:48:20.538Z,9.40
2018-01-25T16:50:48.552Z,9.40
2018-01-25T16:53:17.327Z,9.30
2018-01-25T16:55:45.315Z,9.20
2018-01-25T16:58:13.324Z,9.30
2018-01-25T17:00:42.101Z,9.10
2018-01-25T17:03:10.087Z,9.00
2018-01-25T17:05:38.087Z,9.00
2018-01-25T17:08:06.852Z,8.90
2018-01-25T17:10:34.847Z,8.80
2018-01-25T17:13:02.868Z,8.80
2018-01-25T17:15:30.865Z,8.70
2018-01-25T17:17:58.856Z,8.60
2018-01-25T17:20:26.864Z,8.60
2018-01-25T17:22:54.868Z,8.50
2018-01-25T17:25:23.632Z,8.40
2018-01-25T17:27:51.627Z,8.30
2018-01-25T17:30:19.659Z,8.30
2018-01-25T17:32:47.632Z,8.30
2018-01-25T17:35:16.409Z,8.20
2018-01-25T17:37:44.403Z,8.10
2018-01-25T17:40:13.165Z,7.90
2018-01-25T17:42:41.288Z,7.90
2018-01-25T17:45:10.064Z,7.90
2018-01-25T17:47:38.044Z,7.80
2018-01-25T17:50:06.052Z,7.80
2018-01-25T17:52:34.055Z,7.70
2018-01-25T17:55:02.868Z,7.60
2018-01-25T17:57:30.882Z,7.60
2018-01-25T17:59:58.896Z,7.60
2018-01-25T18:02:26.893Z,7.50
2018-01-25T18:04:54.893Z,7.50
2018-01-25T18:07:22.908Z,7.30
2018-01-25T18:09:50.909Z,7.30
2018-01-25T18:12:18.907Z,7.30
2018-01-25T18:14:46.917Z,7.30
2018-01-25T18:17:15.694Z,7.30
2018-01-25T18:19:43.679Z,7.20
2018-01-25T18:22:11.688Z,7.30
2018-01-25T18:24:39.692Z,7.10
2018-01-25T18:27:07.688Z,7.10
2018-01-25T18:29:35.744Z,7.10
2018-01-25T18:32:03.737Z,7.10
2018-01-25T18:34:31.775Z,7.00
2018-01-25T18:36:59.775Z,7.00
2018-01-25T18:39:28.532Z,7.00
2018-01-25T18:41:56.532Z,7.00
2018-01-25T18:44:24.571Z,6.90
2018-01-25T18:46:52.551Z,6.90
2018-01-25T18:49:20.556Z,6.80
2018-01-25T18:51:48.578Z,6.70
2018-01-25T18:54:16.576Z,6.70
2018-01-25T18:56:45.344Z,6.70
2018-01-25T18:59:13.340Z,6.60
2018-01-25T19:01:41.344Z,6.60
2018-01-25T19:04:10.165Z,6.60
2018-01-25T19:06:38.182Z,6.50
2018-01-25T19:09:06.168Z,6.60
2018-01-25T19:11:34.236Z,6.60
2018-01-25T19:14:02.315Z,6.60
2018-01-25T19:16:31.044Z,6.60
2018-01-25T19:18:59.029Z,6.60
2018-01-25T19:21:27.028Z,6.60
2018-01-25T19:23:55.776Z,6.60
2018-01-25T19:26:23.780Z,6.50
2018-01-25T19:28:51.780Z,6.60
2018-01-25T19:31:19.768Z,6.60
2018-01-25T19:33:47.764Z,6.60
2018-01-25T19:36:16.552Z,6.80
2018-01-25T19:38:44.549Z,6.70
2018-01-25T19:41:13.307Z,7.00
2018-01-25T19:43:41.324Z,6.90
2018-01-25T19:46:10.090Z,7.10
2018-01-25T19:48:38.071Z,7.10
2018-01-25T19:51:06.080Z,7.20
2018-01-25T19:53:34.088Z,7.30
2018-01-25T19:56:02.868Z,7.30
2018-01-25T19:58:30.864Z,7.30
2018-01-25T20:00:59.624Z,7.30
2018-01-25T20:03:27.644Z,7.20
2018-01-25T20:05:56.403Z,7.30
2018-01-25T20:08:24.395Z,7.30
2018-01-25T20:10:52.391Z,7.40
2018-01-25T20:13:20.424Z,7.40
2018-01-25T20:15:48.418Z,7.30
2018-01-25T20:18:16.413Z,7.40
2018-01-25T20:20:44.420Z,7.30
2018-01-25T20:23:12.497Z,7.20
2018-01-25T20:25:40.488Z,7.30
2018-01-25T20:28:08.548Z,7.30
2018-01-25T20:30:36.539Z,7.20
2018-01-25T20:33:04.551Z,7.30
2018-01-25T20:35:33.320Z,7.30
2018-01-25T20:38:01.316Z,7.30
2018-01-25T20:40:29.322Z,7.30
2018-01-25T20:42:58.084Z,7.30
2018-01-25T20:45:26.115Z,7.30
2018-01-25T20:47:55.065Z,7.30
2018-01-25T20:50:23.073Z,7.30
2018-01-25T20:52:51.748Z,7.30
2018-01-25T20:55:19.781Z,7.30
2018-01-25T20:57:47.745Z,7.30
2018-01-25T21:00:15.745Z,7.30
2018-01-25T21:02:44.514Z,7.30
2018-01-25T21:05:12.550Z,7.30
2018-01-25T21:07:40.561Z,7.30
2018-01-25T21:10:08.579Z,7.30
2018-01-25T21:12:37.373Z,7.30
2018-01-25T21:15:05.381Z,7.30
2018-01-25T21:17:33.367Z,7.30
2018-01-25T21:20:01.400Z,7.40
2018-01-25T21:22:29.388Z,7.40
2018-01-25T21:24:57.581Z,7.40
2018-01-25T21:27:25.766Z,7.40
2018-01-25T21:29:53.739Z,7.40
2018-01-25T21:32:22.175Z,7.30
2018-01-25T21:34:50.958Z,7.30
2018-01-25T21:37:18.944Z,7.20
2018-01-25T21:39:46.947Z,7.30
2018-01-25T21:42:15.718Z,7.30
2018-01-25T21:44:43.704Z,7.20
2018-01-25T21:47:11.833Z,7.30
2018-01-25T21:49:42.821Z,7.30
2018-01-25T21:52:11.633Z,7.30
2018-01-25T21:54:39.628Z,7.30
2018-01-25T21:57:07.651Z,7.30
2018-01-25T21:59:36.420Z,7.30
2018-01-25T22:02:04.429Z,7.30
2018-01-25T22:04:32.471Z,7.30
2018-01-25T22:07:00.482Z,7.20
2018-01-25T22:09:29.236Z,7.20
2018-01-25T22:11:57.220Z,7.20
2018-01-25T22:14:25.232Z,7.20
2018-01-25T22:16:53.215Z,7.20
2018-01-25T22:19:21.260Z,7.10
2018-01-25T22:21:49.252Z,7.10
2018-01-25T22:24:17.269Z,7.10
2018-01-25T22:26:45.244Z,7.10
2018-01-25T22:29:13.244Z,7.10
2018-01-25T22:31:42.004Z,7.20
2018-01-25T22:34:10.000Z,7.10
2018-01-25T22:36:39.505Z,7.10
2018-01-25T22:39:07.522Z,7.10
2018-01-25T22:41:35.512Z,7.20
2018-01-25T22:44:04.283Z,7.30
2018-01-25T22:46:32.308Z,7.30
2018-01-25T22:49:00.312Z,7.30
2018-01-25T22:51:28.327Z,7.30
2018-01-25T22:53:56.328Z,7.30
2018-01-25T22:56:24.319Z,7.40
2018-01-25T22:58:53.091Z,7.50
2018-01-25T23:01:21.091Z,7.40
2018-01-25T23:03:49.072Z,7.40
2018-01-25T23:06:17.071Z,7.40
2018-01-25T23:08:45.835Z,7.50
2018-01-25T23:11:13.824Z,7.40
2018-01-25T23:13:41.819Z,7.50
2018-01-25T23:16:09.824Z,7.50
2018-01-25T23:18:38.580Z,7.50
2018-01-25T23:21:06.587Z,7.50
2018-01-25T23:23:34.591Z,7.50
2018-01-25T23:26:03.370Z,7.40
2018-01-25T23:28:31.360Z,7.40
2018-01-25T23:30:59.368Z,7.40
2018-01-25T23:33:27.350Z,7.40
2018-01-25T23:35:55.355Z,7.40
2018-01-25T23:38:38.201Z,7.40
2018-01-25T23:41:06.204Z,7.30
2018-01-25T23:43:34.223Z,7.30
2018-01-25T23:46:02.970Z,7.20
2018-01-25T23:48:30.999Z,7.10
2018-01-25T23:50:59.776Z,7.10
2018-01-25T23:53:27.780Z,7.10
2018-01-25T23:55:56.546Z,7.20
2018-01-25T23:58:24.547Z,7.10
